createdAt,value
2022-10-22T00:02:07.797Z,41.73
2022-10-22T00:08:32.945Z,41.79
2022-10-22T00:15:15.805Z,41.72
2022-10-22T00:21:45.664Z,41.77
2022-10-22T00:28:07.878Z,41.82
2022-10-22T00:34:40.259Z,41.67
2022-10-22T00:41:05.851Z,41.82
2022-10-22T00:47:49.494Z,41.85
2022-10-22T00:54:29.898Z,41.79
2022-10-22T01:01:02.449Z,41.82
2022-10-22T01:07:42.247Z,41.9
2022-10-22T01:14:39.801Z,41.89
2022-10-22T01:21:42.224Z,41.99
2022-10-22T01:28:51.242Z,41.84
2022-10-22T01:35:42.832Z,41.89
2022-10-22T01:42:22.800Z,41.84
2022-10-22T01:49:26.932Z,41.77
2022-10-22T01:56:29.123Z,41.87
2022-10-22T02:03:38.128Z,41.88
2022-10-22T02:10:36.920Z,41.83
2022-10-22T02:17:22.859Z,41.86
2022-10-22T02:24:06.255Z,41.92
2022-10-22T02:31:05.960Z,41.78
2022-10-22T02:37:58.262Z,41.8
2022-10-22T02:44:47.896Z,41.63
2022-10-22T02:51:20.880Z,41.89
2022-10-22T02:57:46.139Z,41.39
2022-10-22T03:04:09.930Z,41.77
2022-10-22T03:10:37.908Z,41.54
2022-10-22T03:17:08.282Z,41.55
2022-10-22T03:23:39.315Z,41.58
2022-10-22T03:30:17.770Z,41.61
2022-10-22T03:36:46.978Z,41.78
2022-10-22T03:43:27.924Z,41.78
2022-10-22T03:50:00.518Z,41.96
2022-10-22T03:56:37.090Z,41.93
2022-10-22T04:03:07.905Z,41.91
2022-10-22T04:09:33.956Z,41.89
2022-10-22T04:16:01.132Z,41.9
2022-10-22T04:22:35.929Z,41.97
2022-10-22T04:29:09.568Z,41.87
2022-10-22T04:35:57.608Z,41.81
2022-10-22T04:42:27.877Z,41.92
2022-10-22T04:48:51.979Z,41.98
2022-10-22T04:55:22.903Z,42.01
2022-10-22T05:02:05.042Z,41.97
2022-10-22T05:08:34.529Z,41.98
2022-10-22T05:15:04.941Z,42
2022-10-22T05:21:35.441Z,42.03
2022-10-22T05:28:05.231Z,41.71
2022-10-22T05:34:42.162Z,41.45
2022-10-22T05:41:15.147Z,41.41
2022-10-22T05:47:44.183Z,41.53
2022-10-22T05:54:32.169Z,41.39
2022-10-22T06:00:58.174Z,41.45
2022-10-22T06:07:36.200Z,41.48
2022-10-22T06:14:09.229Z,41.51
2022-10-22T06:20:49.361Z,41.4
2022-10-22T06:27:16.626Z,41.45
2022-10-22T06:33:43.518Z,41.49
2022-10-22T06:40:16.239Z,41.52
2022-10-22T06:46:56.214Z,41.57
2022-10-22T06:53:25.611Z,41.48
2022-10-22T07:00:01.376Z,41.49
2022-10-22T07:06:41.259Z,41.57
2022-10-22T07:13:14.367Z,41.54
2022-10-22T07:19:56.609Z,41.57
2022-10-22T07:26:27.125Z,41.65
2022-10-22T07:33:02.202Z,41.6
2022-10-22T07:39:39.155Z,41.49
2022-10-22T07:46:15.525Z,41.44
2022-10-22T07:52:44.847Z,41.41
2022-10-22T07:59:16.715Z,41.95
2022-10-22T08:05:47.305Z,41.93
2022-10-22T08:12:14.887Z,41.86
2022-10-22T08:18:42.517Z,41.88
2022-10-22T08:25:10.580Z,41.93
2022-10-22T08:31:39.890Z,41.86
2022-10-22T08:38:02.262Z,41.89
2022-10-22T08:44:55.536Z,41.85
2022-10-22T08:51:42.614Z,41.91
2022-10-22T08:58:34.347Z,41.73
2022-10-22T09:05:43.371Z,41.71
2022-10-22T09:12:28.708Z,41.83
2022-10-22T09:19:15.235Z,41.66
2022-10-22T09:26:19.294Z,41.8
2022-10-22T09:32:53.586Z,41.81
2022-10-22T09:39:48.154Z,41.82
2022-10-22T09:46:23.240Z,41.85
2022-10-22T09:53:16.766Z,41.75
2022-10-22T10:00:08.392Z,41.72
2022-10-22T10:06:54.770Z,41.48
2022-10-22T10:13:48.397Z,41.59
2022-10-22T10:20:52.781Z,41.43
2022-10-22T10:28:06.283Z,41.56
2022-10-22T10:35:07.697Z,41.39
2022-10-22T10:42:18.471Z,40.96
2022-10-22T10:49:31.005Z,41.5
2022-10-22T10:56:39.956Z,41.52
2022-10-22T11:03:44.012Z,41.55
2022-10-22T11:10:52.434Z,41.41
2022-10-22T11:18:06.809Z,41.49
2022-10-22T11:25:24.139Z,41.31
2022-10-22T11:32:44.884Z,41.18
2022-10-22T11:39:42.503Z,41.16
2022-10-22T11:46:56.207Z,41.27
2022-10-22T11:54:02.951Z,41.29
2022-10-22T12:00:55.235Z,41.29
2022-10-22T12:08:14.801Z,41.19
2022-10-22T12:15:16.410Z,41.27
2022-10-22T12:22:25.555Z,40.91
2022-10-22T12:29:21.673Z,41.19
2022-10-22T12:36:10.705Z,41.18
2022-10-22T12:42:57.272Z,41.25
2022-10-22T12:49:36.486Z,41.22
2022-10-22T12:56:30.506Z,40.97
2022-10-22T13:03:16.338Z,40.86
2022-10-22T13:10:14.824Z,40.85
2022-10-22T13:17:03.302Z,40.85
2022-10-22T13:23:51.983Z,40.48
2022-10-22T13:30:53.505Z,40.06
2022-10-22T13:37:36.369Z,40.28
2022-10-22T13:44:12.883Z,40.48
2022-10-22T13:50:51.280Z,40.55
2022-10-22T13:57:32.952Z,40.52
2022-10-22T14:04:12.527Z,40.64
2022-10-22T14:11:01.691Z,40.82
2022-10-22T14:17:37.514Z,40.73
2022-10-22T14:24:33.185Z,40.67
2022-10-22T14:31:09.297Z,40.67
2022-10-22T14:37:57.722Z,40.52
2022-10-22T14:44:42.340Z,40.56
2022-10-22T14:51:17.350Z,40.45
2022-10-22T14:57:53.376Z,40.52
2022-10-22T15:04:26.304Z,40.72
2022-10-22T15:11:00.858Z,40.79
2022-10-22T15:17:42.167Z,40.89
2022-10-22T15:24:11.504Z,40.82
2022-10-22T15:30:45.412Z,40.88
2022-10-22T15:37:33.858Z,40.95
2022-10-22T15:44:16.886Z,41.02
2022-10-22T15:51:01.682Z,40.92
2022-10-22T15:57:35.641Z,41.09
2022-10-22T16:04:12.318Z,41.14
2022-10-22T16:10:47.980Z,41.24
2022-10-22T16:17:22.116Z,41.27
2022-10-22T16:23:55.221Z,41.17
2022-10-22T16:30:32.553Z,41.19
2022-10-22T16:37:03.423Z,41.18
2022-10-22T16:43:40.954Z,41.14
2022-10-22T16:50:06.597Z,41.2
2022-10-22T16:56:40.046Z,41.19
2022-10-22T17:03:26.086Z,41.26
2022-10-22T17:09:55.544Z,41.35
2022-10-22T17:16:36.435Z,41.4
2022-10-22T17:23:13.809Z,41.41
2022-10-22T17:29:54.552Z,41.36
2022-10-22T17:36:36.488Z,41.34
2022-10-22T17:43:11.970Z,41.35
2022-10-22T17:49:41.573Z,41.47
2022-10-22T17:56:15.021Z,41.49
2022-10-22T18:02:52.010Z,41.49
2022-10-22T18:09:23.580Z,41.53
2022-10-22T18:15:57.614Z,41.53
2022-10-22T18:22:30.648Z,41.53
2022-10-22T18:28:59.855Z,41.55
2022-10-22T18:35:40.195Z,41.55
2022-10-22T18:42:31.186Z,41.56
2022-10-22T18:49:23.130Z,41.63
2022-10-22T18:56:01.000Z,41.64
2022-10-22T19:02:36.518Z,41.49
2022-10-22T19:09:07.780Z,41.51
2022-10-22T19:15:53.613Z,41.53
2022-10-22T19:22:29.626Z,41.66
2022-10-22T19:29:11.175Z,41.68
2022-10-22T19:35:46.610Z,41.55
2022-10-22T19:42:26.723Z,41.7
2022-10-22T19:49:04.610Z,41.55
2022-10-22T19:55:33.950Z,41.61
2022-10-22T20:02:08.170Z,41.58
2022-10-22T20:08:56.222Z,41.65
2022-10-22T20:15:29.639Z,41.68
2022-10-22T20:22:17.743Z,41.73
2022-10-22T20:28:46.040Z,41.71
2022-10-22T20:35:23.248Z,41.43
2022-10-22T20:41:53.739Z,41.92
2022-10-22T20:48:29.091Z,41.53
2022-10-22T20:55:02.931Z,41.93
2022-10-22T21:01:29.718Z,41.92
2022-10-22T21:07:56.568Z,41.62
2022-10-22T21:14:34.024Z,41.9
2022-10-22T21:21:16.204Z,41.88
2022-10-22T21:27:50.561Z,42.01
2022-10-22T21:34:22.256Z,42.11
2022-10-22T21:41:02.747Z,41.94
2022-10-22T21:47:43.366Z,41.76
2022-10-22T21:54:13.066Z,41.91
2022-10-22T22:00:42.620Z,41.99
2022-10-22T22:07:15.867Z,41.97
2022-10-22T22:13:41.686Z,42
2022-10-22T22:20:09.613Z,41.97
2022-10-22T22:26:46.005Z,41.8
2022-10-22T22:33:21.078Z,41.59
2022-10-22T22:40:00.122Z,41.92
2022-10-22T22:46:22.877Z,42.04
2022-10-22T22:52:47.944Z,42.04
2022-10-22T22:59:15.682Z,42.07
2022-10-22T23:05:53.637Z,42.12
2022-10-22T23:12:24.356Z,42.02
2022-10-22T23:18:49.136Z,41.99
2022-10-22T23:25:15.643Z,42.04
2022-10-22T23:31:49.766Z,42.02
2022-10-22T23:38:15.757Z,42.1
2022-10-22T23:44:45.501Z,42.14
2022-10-22T23:51:18.729Z,42.07
2022-10-22T23:57:43.018Z,42.06
